Time;durP1;ratioP1;P1;durP2;ratioP2;P2;SDS_P1;SDS_P2;PMS_P1;PMS_P2;Temp;Humidity;BMP_temperature;BMP_pressure;BME280_temperature;BME280_humidity;BME280_pressure;Samples;Min_cycle;Max_cycle;Signal;HPM_P1;HPM_P2
2022/04/10 00:00:58;;;;;;;;;;;;;;;;;;2014167;28;19932;-73
2022/04/10 00:01:57;;;;;;;;;;;;;;;;;;2014210;28;19905;-74
2022/04/10 00:02:56;;;;;;;;;;;;;;;;;;2014109;28;19912;-74
2022/04/10 00:03:56;;;;;;;;;;;;;;;;;;2013977;28;19917;-74
2022/04/10 00:04:55;;;;;;;;;;;;;;;;;;2014121;28;20007;-74
2022/04/10 00:05:54;;;;;;;;;;;;;;;;;;2014111;28;19905;-74
2022/04/10 00:06:53;;;;;;;;;;;;;;;;;;2014040;28;19909;-74
2022/04/10 00:07:52;;;;;;;;;;;;;;;;;;2013381;28;20079;-74
2022/04/10 00:08:51;;;;;;;;;;;;;;;;;;2013550;28;20007;-75
2022/04/10 00:09:50;;;;;;;;;;;;;;;;;;2014097;28;20330;-74
2022/04/10 00:10:49;;;;;;;;;;;;;;;;;;2014044;28;19944;-75
2022/04/10 00:11:47;;;;;;;;;;;;;;;;;;2014064;28;20006;-74
2022/04/10 00:12:46;;;;;;;;;;;;;;;;;;2014206;28;20280;-73
2022/04/10 00:13:45;;;;;;;;;;;;;;;;;;2014185;28;19999;-74
2022/04/10 00:14:45;;;;;;;;;;;;;;;;;;2014005;28;19966;-73
2022/04/10 00:15:44;;;;;;;;;;;;;;;;;;2014039;28;19905;-74
2022/04/10 00:16:43;;;;;;;;;;;;;;;;;;2014060;28;19905;-74
2022/04/10 00:17:42;;;;;;;;;;;;;;;;;;2013942;28;19909;-74
2022/04/10 00:18:40;;;;;;;;;;;;;;;;;;2013458;28;19943;-75
2022/04/10 00:19:39;;;;;;;;;;;;;;;;;;2013492;28;20114;-74
2022/04/10 00:20:38;;;;;;;;;;;;;;;;;;2013310;28;19995;-74
2022/04/10 00:21:37;;;;;;;;;;;;;;;;;;2013371;28;19905;-75
2022/04/10 00:22:36;;;;;;;;;;;;;;;;;;2013770;28;20276;-74
2022/04/10 00:23:35;;;;;;;;;;;;;;;;;;2013107;28;19956;-74
2022/04/10 00:24:34;;;;;;;;;;;;;;;;;;2013282;28;19905;-74
2022/04/10 00:25:33;;;;;;;;;;;;;;;;;;2013799;28;19916;-75
2022/04/10 00:26:31;;;;;;;;;;;;;;;;;;2013853;28;20383;-75
2022/04/10 00:27:30;;;;;;;;;;;;;;;;;;2013982;28;20000;-75
2022/04/10 00:28:29;;;;;;;;;;;;;;;;;;2013891;28;19913;-75
2022/04/10 00:29:28;;;;;;;;;;;;;;;;;;2013083;28;20438;-76
2022/04/10 00:30:27;;;;;;;;;;;;;;;;;;2013289;28;19905;-73
2022/04/10 00:31:28;;;;;;;;;;;15.70;95.00;;;;;;2013801;28;19905;-76
2022/04/10 00:32:27;;;;;;;;;;;15.80;95.10;;;;;;2013731;28;20373;-74
2022/04/10 00:33:26;;;;;;;;;;;15.80;95.00;;;;;;2013784;28;19928;-74
2022/04/10 00:34:24;;;;;;;;;;;15.80;94.90;;;;;;2013804;28;19909;-74
2022/04/10 00:35:22;;;;;;;;;;;15.80;94.80;;;;;;2013764;28;19905;-75
2022/04/10 00:36:21;;;;;;;;;;;15.80;94.70;;;;;;2013794;28;20260;-74
2022/04/10 00:37:20;;;;;;;;;;;15.70;94.60;;;;;;2013700;28;20345;-74
2022/04/10 00:38:20;;;;;;;;;;;15.80;94.60;;;;;;2013874;28;20008;-74
2022/04/10 00:39:18;;;;;;;;;;;15.80;94.60;;;;;;2013003;28;19905;-76
2022/04/10 00:40:17;;;;;;;;;;;15.70;94.50;;;;;;2013294;28;19945;-76
2022/04/10 00:41:15;;;;;;;;;;;15.70;94.40;;;;;;2013630;28;20229;-74
2022/04/10 00:42:15;;;;;;;;;;;15.70;94.40;;;;;;2013660;28;19905;-74
2022/04/10 00:43:15;;;;;;;;;;;15.70;94.40;;;;;;2013033;28;20261;-74
2022/04/10 00:44:14;;;;;;;;;;;15.70;94.30;;;;;;2013097;28;19915;-75
2022/04/10 00:45:13;;;;;;;;;;;15.70;94.30;;;;;;2013731;28;19967;-74
2022/04/10 00:46:11;;;;;;;;;;;15.70;94.30;;;;;;2013595;28;19909;-75
2022/04/10 00:47:10;;;;;;;;;;;15.70;94.20;;;;;;2013635;28;19912;-74
2022/04/10 00:48:09;;;;;;;;;;;15.70;94.20;;;;;;2013824;28;19905;-74
2022/04/10 00:49:08;;;;;;;;;;;15.70;94.10;;;;;;2013852;28;19911;-74
2022/04/10 00:50:07;;;;;;;;;;;15.50;94.10;;;;;;2013612;28;20348;-74
2022/04/10 00:52:25;;;;;;;;;;;15.70;94.10;;;;;;2013611;28;19912;-74
2022/04/10 00:53:24;;;;;;;;;;;15.70;94.20;;;;;;2012988;28;20265;-77
2022/04/10 00:54:25;;;;;;;;;;;15.70;94.00;;;;;;2013258;28;20010;-74
2022/04/10 00:55:23;;;;;;;;;;;15.70;94.10;;;;;;2013695;28;19995;-75
2022/04/10 00:56:21;;;;;;;;;;;15.70;94.20;;;;;;2013493;28;19905;-73
2022/04/10 00:57:20;;;;;;;;;;;15.70;94.10;;;;;;2013537;28;19905;-74
2022/04/10 00:58:19;;;;;;;;;;;15.70;94.10;;;;;;2013553;28;19906;-74
2022/04/10 00:59:17;;;;;;;;;;;15.70;94.10;;;;;;2013667;28;19905;-74
2022/04/10 01:00:16;;;;;;;;;;;15.70;94.10;;;;;;2016482;28;19991;-74
2022/04/10 01:01:14;;;;;;;;;;;15.70;94.10;;;;;;2020228;28;19931;-75
2022/04/10 01:02:13;;;;;;;;;;;15.70;94.10;;;;;;2021155;28;19992;-75
2022/04/10 01:03:11;;;;;;;;;;;15.70;94.10;;;;;;2021522;28;19917;-75
2022/04/10 01:04:12;;;;;;;;;;;15.60;94.10;;;;;;2017518;28;19913;-75
2022/04/10 01:05:11;;;;;;;;;;;15.70;94.10;;;;;;2015009;28;19928;-73
2022/04/10 01:06:09;;;;;;;;;;;15.70;94.20;;;;;;2014913;28;19927;-76
2022/04/10 01:07:11;;;;;;;;;;;15.70;94.20;;;;;;2014393;28;20061;-76
2022/04/10 01:08:10;;;;;;;;;;;15.70;94.10;;;;;;2014309;28;20043;-74
2022/04/10 01:09:09;;;;;;;;;;;15.60;94.20;;;;;;2013971;28;19905;-74
2022/04/10 01:10:07;;;;;;;;;;;15.70;94.20;;;;;;2013921;28;19905;-74
2022/04/10 01:11:06;;;;;;;;;;;15.70;94.20;;;;;;2013849;28;20047;-74
2022/04/10 01:12:05;;;;;;;;;;;15.60;94.20;;;;;;2013288;28;19943;-75
2022/04/10 01:13:04;;;;;;;;;;;15.70;94.20;;;;;;2005515;28;19983;-75
2022/04/10 01:14:04;;;;;;;;;;;15.60;94.20;;;;;;2012842;28;19909;-74
2022/04/10 01:15:04;;;;;;;;;;;15.60;94.20;;;;;;2013730;28;19944;-75
2022/04/10 01:16:02;;;;;;;;;;;15.60;94.20;;;;;;2013788;28;20435;-75
2022/04/10 01:17:01;;;;;;;;;;;15.60;94.20;;;;;;2013516;28;19909;-73
2022/04/10 01:17:59;;;;;;;;;;;15.60;94.20;;;;;;2013602;28;19912;-74
2022/04/10 01:19:00;;;;;;;;;;;15.60;94.20;;;;;;2013750;28;19944;-74
2022/04/10 01:19:59;;;;;;;;;;;15.60;94.20;;;;;;2013469;28;20023;-75
2022/04/10 01:21:01;;;;;;;;;;;15.60;94.30;;;;;;2013429;28;19923;-74
2022/04/10 01:22:02;;;;;;;;;;;15.60;94.30;;;;;;2013641;28;20049;-76
2022/04/10 01:23:01;;;;;;;;;;;15.60;94.60;;;;;;2013521;28;19952;-75
2022/04/10 01:23:59;;;;;;;;;;;15.60;94.30;;;;;;2013424;28;20415;-75
2022/04/10 01:24:58;;;;;;;;;;;15.60;94.30;;;;;;2013479;28;19905;-75
2022/04/10 01:25:57;;;;;;;;;;;15.60;94.40;;;;;;2013494;28;19905;-76
2022/04/10 01:26:55;;;;;;;;;;;15.60;94.20;;;;;;2013326;28;19905;-75
2022/04/10 01:27:54;;;;;;;;;;;15.60;94.40;;;;;;2013628;28;19905;-74
2022/04/10 01:29:02;;;;;;;;;;;15.60;94.50;;;;;;2013364;28;20364;-74
2022/04/10 01:30:00;;;;;;;;;;;15.60;94.50;;;;;;2012781;28;20005;-74
2022/04/10 01:30:59;;;;;;;;;;;15.60;94.50;;;;;;2012922;28;19912;-75
2022/04/10 01:31:57;;;;;;;;;;;15.60;94.60;;;;;;2013360;28;19905;-76
2022/04/10 01:32:57;;;;;;;;;;;15.50;94.60;;;;;;2013295;28;20135;-75
2022/04/10 01:33:58;;;;;;;;;;;15.50;94.60;;;;;;2012714;28;19905;-76
2022/04/10 01:34:59;;;;;;;;;;;15.60;94.70;;;;;;2012738;28;19905;-76
2022/04/10 01:35:58;;;;;;;;;;;15.50;94.70;;;;;;2013326;28;20316;-75
2022/04/10 01:36:57;;;;;;;;;;;15.50;94.80;;;;;;2013257;28;19912;-75
2022/04/10 01:37:56;;;;;;;;;;;15.60;94.90;;;;;;2013292;28;19959;-73
2022/04/10 01:38:56;;;;;;;;;;;15.50;94.90;;;;;;2013520;28;20110;-75
2022/04/10 01:39:55;;;;;;;;;;;15.50;94.90;;;;;;2013344;28;20359;-74
2022/04/10 01:40:53;;;;;;;;;;;15.60;94.90;;;;;;2013310;28;19905;-75
2022/04/10 01:41:54;;;;;;;;;;;15.40;94.70;;;;;;2013334;28;19951;-76
2022/04/10 01:42:52;;;;;;;;;;;15.50;95.00;;;;;;2012709;28;19927;-75
2022/04/10 01:43:52;;;;;;;;;;;;;;;;;;2012527;28;20348;-75
2022/04/10 01:44:51;;;;;;;;;;;;;;;;;;2013262;28;19905;-75
2022/04/10 01:45:50;;;;;;;;;;;;;;;;;;2013284;28;19937;-74
2022/04/10 01:46:49;;;;;;;;;;;;;;;;;;2013165;28;19905;-75
2022/04/10 01:47:47;;;;;;;;;;;;;;;;;;2013341;28;20315;-75
2022/04/10 01:48:46;;;;;;;;;;;;;;;;;;2013215;28;19905;-75
2022/04/10 01:49:45;;;;;;;;;;;;;;;;;;2012507;28;20288;-74
2022/04/10 01:50:45;;;;;;;;;;;;;;;;;;2012629;28;19924;-75
2022/04/10 01:51:44;;;;;;;;;;;;;;;;;;2013011;28;19936;-74
2022/04/10 01:52:43;;;;;;;;;;;;;;;;;;2012591;28;19948;-74
2022/04/10 01:53:42;;;;;;;;;;;;;;;;;;2012544;28;19909;-74
2022/04/10 01:54:41;;;;;;;;;;;;;;;;;;2013233;28;19909;-74
2022/04/10 01:55:40;;;;;;;;;;;;;;;;;;2012557;28;19905;-74
2022/04/10 01:56:39;;;;;;;;;;;;;;;;;;2012562;28;19936;-75
2022/04/10 01:57:37;;;;;;;;;;;;;;;;;;2013071;28;20383;-73
2022/04/10 01:58:36;;;;;;;;;;;;;;;;;;2013131;28;19905;-76
2022/04/10 01:59:35;;;;;;;;;;;;;;;;;;2012416;28;19994;-75
2022/04/10 02:00:34;;;;;;;;;;;;;;;;;;2012635;28;19912;-75
2022/04/10 02:01:34;;;;;;;;;;;;;;;;;;2013284;28;19908;-75
2022/04/10 02:02:34;;;;;;;;;;;;;;;;;;2013079;28;19912;-73
2022/04/10 02:03:33;;;;;;;;;;;;;;;;;;2013020;28;20328;-74
2022/04/10 02:04:31;;;;;;;;;;;;;;;;;;2013214;28;19928;-75
2022/04/10 02:05:30;;;;;;;;;;;;;;;;;;2013134;28;19912;-74
2022/04/10 02:06:29;;;;;;;;;;;;;;;;;;2012997;28;19963;-75
2022/04/10 02:07:28;;;;;;;;;;;;;;;;;;2013209;28;19905;-76
2022/04/10 02:08:27;;;;;;;;;;;;;;;;;;2012784;28;20392;-72
2022/04/10 02:09:26;;;;;;;;;;;;;;;;;;2013284;28;20064;-73
2022/04/10 02:10:24;;;;;;;;;;;;;;;;;;2013113;28;19912;-74
2022/04/10 02:11:23;;;;;;;;;;;;;;;;;;2012424;28;19905;-74
2022/04/10 02:12:22;;;;;;;;;;;;;;;;;;2012493;28;20028;-74
2022/04/10 02:13:21;;;;;;;;;;;;;;;;;;2013054;28;20342;-75
2022/04/10 02:14:20;;;;;;;;;;;;;;;;;;2013143;28;19920;-74
2022/04/10 02:15:19;;;;;;;;;;;;;;;;;;2013136;28;20348;-73
2022/04/10 02:16:18;;;;;;;;;;;;;;;;;;2013033;28;19962;-74
2022/04/10 02:17:17;;;;;;;;;;;;;;;;;;2013085;28;20044;-75
2022/04/10 02:18:16;;;;;;;;;;;;;;;;;;2013095;28;20347;-74
2022/04/10 02:19:16;;;;;;;;;;;;;;;;;;2013019;28;20410;-75
2022/04/10 02:20:15;;;;;;;;;;;;;;;;;;2013013;28;19905;-74
2022/04/10 02:21:14;;;;;;;;;;;;;;;;;;2012322;28;20394;-74
2022/04/10 02:22:12;;;;;;;;;;;;;;;;;;2012475;28;19905;-74
2022/04/10 02:23:11;;;;;;;;;;;;;;;;;;2013107;28;19905;-74
2022/04/10 02:24:10;;;;;;;;;;;;;;;;;;2012989;28;19909;-74
2022/04/10 02:25:09;;;;;;;;;;;;;;;;;;2013054;28;19905;-77
2022/04/10 02:26:11;;;;;;;;;;;;;;;;;;2012254;28;19994;-74
2022/04/10 02:27:10;;;;;;;;;;;;;;;;;;2012412;28;19905;-74
2022/04/10 02:29:27;;;;;;;;;;;;;;;;;;2013207;28;19988;-73
2022/04/10 02:30:26;;;;;;;;;;;;;;;;;;2012356;28;19909;-74
2022/04/10 02:31:24;;;;;;;;;;;;;;;;;;2012338;28;19905;-75
2022/04/10 02:32:23;;;;;;;;;;;;;;;;;;2012295;28;19912;-75
2022/04/10 02:33:22;;;;;;;;;;;;;;;;;;2013020;28;19905;-74
2022/04/10 02:34:21;;;;;;;;;;;;;;;;;;2013056;28;19905;-75
2022/04/10 02:35:20;;;;;;;;;;;;;;;;;;2013123;28;19999;-76
2022/04/10 02:36:19;;;;;;;;;;;;;;;;;;2012810;28;19905;-75
2022/04/10 02:37:18;;;;;;;;;;;;;;;;;;2012971;28;19966;-74
2022/04/10 02:38:17;;;;;;;;;;;;;;;;;;2013024;28;20391;-73
2022/04/10 02:39:16;;;;;;;;;;;;;;;;;;2012936;28;19905;-74
2022/04/10 02:40:15;;;;;;;;;;;;;;;;;;2012859;28;20323;-76
2022/04/10 02:41:14;;;;;;;;;;;;;;;;;;2012950;28;19905;-74
2022/04/10 02:42:13;;;;;;;;;;;;;;;;;;2012879;28;20349;-74
2022/04/10 02:43:13;;;;;;;;;;;;;;;;;;2012897;28;19913;-75
2022/04/10 02:44:12;;;;;;;;;;;;;;;;;;2012844;28;19909;-75
2022/04/10 02:45:11;;;;;;;;;;;;;;;;;;2012836;28;19905;-74
2022/04/10 02:46:10;;;;;;;;;;;;;;;;;;2012857;28;20364;-75
2022/04/10 02:47:09;;;;;;;;;;;;;;;;;;2012810;28;20364;-75
2022/04/10 02:48:08;;;;;;;;;;;;;;;;;;2012900;28;19905;-74
2022/04/10 02:49:07;;;;;;;;;;;;;;;;;;2012907;28;19951;-75
2022/04/10 02:50:06;;;;;;;;;;;;;;;;;;2013016;28;19909;-75
2022/04/10 02:51:04;;;;;;;;;;;;;;;;;;2012809;28;20284;-74
2022/04/10 02:52:03;;;;;;;;;;;;;;;;;;2012960;28;19925;-73
2022/04/10 02:53:02;;;;;;;;;;;;;;;;;;2012164;28;20334;-73
2022/04/10 02:54:01;;;;;;;;;;;;;;;;;;2012303;28;19905;-74
2022/04/10 02:55:00;;;;;;;;;;;;;;;;;;2012825;28;19913;-74
2022/04/10 02:55:59;;;;;;;;;;;;;;;;;;2012942;28;19916;-73
2022/04/10 02:56:58;;;;;;;;;;;;;;;;;;2012845;28;20482;-74
2022/04/10 02:57:56;;;;;;;;;;;;;;;;;;2012921;28;19905;-75
2022/04/10 02:58:55;;;;;;;;;;;;;;;;;;2012932;28;19996;-75
2022/04/10 02:59:54;;;;;;;;;;;;;;;;;;2012807;28;19906;-74
2022/04/10 03:00:53;;;;;;;;;;;;;;;;;;2012910;28;19976;-75
2022/04/10 03:01:52;;;;;;;;;;;;;;;;;;2012169;28;19905;-73
2022/04/10 03:02:51;;;;;;;;;;;;;;;;;;2012249;28;20276;-75
2022/04/10 03:03:51;;;;;;;;;;;;;;;;;;2012806;28;19912;-75
2022/04/10 03:04:50;;;;;;;;;;;;;;;;;;2012648;28;19958;-74
2022/04/10 03:05:49;;;;;;;;;;;;;;;;;;2012912;28;19909;-74
2022/04/10 03:06:47;;;;;;;;;;;;;;;;;;2012843;28;20250;-74
2022/04/10 03:07:46;;;;;;;;;;;;;;;;;;2012834;28;19905;-74
2022/04/10 03:08:45;;;;;;;;;;;;;;;;;;2012096;28;19999;-75
2022/04/10 03:09:44;;;;;;;;;;;;;;;;;;2012294;28;19992;-75
2022/04/10 03:10:43;;;;;;;;;;;;;;;;;;2012814;28;19911;-74
2022/04/10 03:11:42;;;;;;;;;;;;;;;;;;2012779;28;20325;-74
2022/04/10 03:12:41;;;;;;;;;;;;;;;;;;2012109;28;19909;-74
2022/04/10 03:13:40;;;;;;;;;;;;;;;;;;2012224;28;19905;-74
2022/04/10 03:14:39;;;;;;;;;;;;;;;;;;2012752;28;19905;-74
2022/04/10 03:15:38;;;;;;;;;;;;;;;;;;2012784;28;20074;-75
2022/04/10 03:16:37;;;;;;;;;;;;;;;;;;2012732;28;19904;-76
2022/04/10 03:17:35;;;;;;;;;;;;;;;;;;2012787;28;19916;-74
2022/04/10 03:18:34;;;;;;;;;;;;;;;;;;2013981;28;19916;-73
2022/04/10 03:19:33;;;;;;;;;;;;;;;;;;2016321;28;19955;-73
2022/04/10 03:20:32;;;;;;;;;;;;;;;;;;2015975;28;19905;-74
2022/04/10 03:21:31;;;;;;;;;;;;;;;;;;2017802;28;19968;-74
2022/04/10 03:22:30;;;;;;;;;;;;;;;;;;2018055;28;19988;-74
2022/04/10 03:23:29;;;;;;;;;;;;;;;;;;2015358;28;20340;-74
2022/04/10 03:24:27;;;;;;;;;;;;;;;;;;2014862;28;19909;-74
2022/04/10 03:25:26;;;;;;;;;;;;;;;;;;2014662;28;19905;-74
2022/04/10 03:26:25;;;;;;;;;;;;;;;;;;2014392;28;19909;-74
2022/04/10 03:27:24;;;;;;;;;;;;;;;;;;2014487;28;19971;-74
2022/04/10 03:28:23;;;;;;;;;;;;;;;;;;2013781;28;19911;-74
2022/04/10 03:29:22;;;;;;;;;;;;;;;;;;2013989;28;19905;-74
2022/04/10 03:30:21;;;;;;;;;;;;;;;;;;2014472;28;19992;-76
2022/04/10 03:31:20;;;;;;;;;;;;;;;;;;2014323;28;19930;-75
2022/04/10 03:32:19;;;;;;;;;;;;;;;;;;2014289;28;19949;-75
2022/04/10 03:33:18;;;;;;;;;;;;;;;;;;2013500;28;19905;-74
2022/04/10 03:34:17;;;;;;;;;;;;;;;;;;2013682;28;19905;-74
2022/04/10 03:35:15;;;;;;;;;;;;;;;;;;2014267;28;19941;-74
2022/04/10 03:36:14;;;;;;;;;;;;;;;;;;2013489;28;19905;-74
2022/04/10 03:37:13;;;;;;;;;;;;;;;;;;2014123;28;20389;-75
2022/04/10 03:38:12;;;;;;;;;;;;;;;;;;2014398;28;19905;-74
2022/04/10 03:39:11;;;;;;;;;;;;;;;;;;2014414;28;20268;-74
2022/04/10 03:40:10;;;;;;;;;;;;;;;;;;2014229;28;19905;-74
2022/04/10 03:41:10;;;;;;;;;;;;;;;;;;2014309;28;19928;-74
2022/04/10 03:42:09;;;;;;;;;;;;;;;;;;2014377;28;19905;-74
2022/04/10 03:43:08;;;;;;;;;;;;;;;;;;2014168;28;19979;-74
2022/04/10 03:44:07;;;;;;;;;;;;;;;;;;2013437;28;19963;-73
2022/04/10 03:45:06;;;;;;;;;;;;;;;;;;2013638;28;20459;-74
2022/04/10 03:46:05;;;;;;;;;;;;;;;;;;2014095;28;20268;-74
2022/04/10 03:47:04;;;;;;;;;;;;;;;;;;2014106;28;19911;-75
2022/04/10 03:48:02;;;;;;;;;;;;;;;;;;2013568;28;19905;-75
2022/04/10 03:49:01;;;;;;;;;;;;;;;;;;2013573;28;19972;-74
2022/04/10 03:50:00;;;;;;;;;;;;;;;;;;2014479;28;20006;-74
2022/04/10 03:50:59;;;;;;;;;;;;;;;;;;2016710;28;19905;-75
2022/04/10 03:51:58;;;;;;;;;;;;;;;;;;2015341;28;19916;-75
2022/04/10 03:52:57;;;;;;;;;;;;;;;;;;2016038;28;20343;-74
2022/04/10 03:53:55;;;;;;;;;;;;;;;;;;2019673;28;19909;-75
2022/04/10 03:54:54;;;;;;;;;;;;;;;;;;2015309;28;20019;-74
2022/04/10 03:55:53;;;;;;;;;;;;;;;;;;2015160;28;19909;-74
2022/04/10 03:56:52;;;;;;;;;;;;;;;;;;2015264;28;19928;-74
2022/04/10 03:57:51;;;;;;;;;;;;;;;;;;2014245;28;19939;-75
2022/04/10 03:58:50;;;;;;;;;;;;;;;;;;2014369;28;19911;-75
2022/04/10 03:59:49;;;;;;;;;;;;;;;;;;2014718;28;19962;-74
2022/04/10 04:00:48;;;;;;;;;;;;;;;;;;2014411;28;20283;-75
2022/04/10 04:01:47;;;;;;;;;;;;;;;;;;2014304;28;20272;-74
2022/04/10 04:02:45;;;;;;;;;;;;;;;;;;2014259;28;19909;-74
2022/04/10 04:03:44;;;;;;;;;;;;;;;;;;2014200;28;19912;-74
2022/04/10 04:04:43;;;;;;;;;;;;;;;;;;2014190;28;19978;-75
2022/04/10 04:05:42;;;;;;;;;;;;;;;;;;2014133;28;20391;-73
2022/04/10 04:06:41;;;;;;;;;;;;;;;;;;2014246;28;19995;-74
2022/04/10 04:07:40;;;;;;;;;;;;;;;;;;2013490;28;19909;-74
2022/04/10 04:08:40;;;;;;;;;;;;;;;;;;2013508;28;19913;-75
2022/04/10 04:09:40;;;;;;;;;;;;;;;;;;2014213;28;19967;-74
2022/04/10 04:10:38;;;;;;;;;;;;;;;;;;2013433;28;19905;-75
2022/04/10 04:11:37;;;;;;;;;;;;;;;;;;2013590;28;20356;-74
2022/04/10 04:12:36;;;;;;;;;;;;;;;;;;2014019;28;19940;-73
2022/04/10 04:13:35;;;;;;;;;;;;;;;;;;2014172;28;19908;-73
2022/04/10 04:14:34;;;;;;;;;;;;;;;;;;2014002;28;19905;-74
2022/04/10 04:15:33;;;;;;;;;;;;;;;;;;2013904;28;20318;-75
2022/04/10 04:16:33;;;;;;;;;;;;;;;;;;2013976;28;19905;-74
2022/04/10 04:17:32;;;;;;;;;;;;;;;;;;2014037;28;19905;-74
2022/04/10 04:18:31;;;;;;;;;;;;;;;;;;2014095;28;20007;-74
2022/04/10 04:19:29;;;;;;;;;;;;;;;;;;2013944;28;19912;-74
2022/04/10 04:20:28;;;;;;;;;;;;;;;;;;2013962;28;19905;-74
2022/04/10 04:21:27;;;;;;;;;;;;;;;;;;2013951;28;19912;-75
2022/04/10 04:22:26;;;;;;;;;;;;;;;;;;2013953;28;19912;-75
2022/04/10 04:23:25;;;;;;;;;;;;;;;;;;2013899;28;19913;-74
2022/04/10 04:24:24;;;;;;;;;;;;;;;;;;2013836;28;19916;-74
2022/04/10 04:25:23;;;;;;;;;;;;;;;;;;2014115;28;19987;-74
2022/04/10 04:26:23;;;;;;;;;;;;;;;;;;2013908;28;20307;-74
2022/04/10 04:27:22;;;;;;;;;;;;;;;;;;2013944;28;20360;-74
2022/04/10 04:28:21;;;;;;;;;;;;;;;;;;2013965;28;19991;-75
2022/04/10 04:29:20;;;;;;;;;;;;;;;;;;2013915;28;19939;-75
2022/04/10 04:30:19;;;;;;;;;;;;;;;;;;2013872;28;20375;-74
2022/04/10 04:31:17;;;;;;;;;;;;;;;;;;2013764;28;19928;-74
2022/04/10 04:32:16;;;;;;;;;;;;;;;;;;2013558;28;19955;-74
2022/04/10 04:33:16;;;;;;;;;;;;;;;;;;2013780;28;19948;-74
2022/04/10 04:34:16;;;;;;;;;;;;;;;;;;2013188;28;19920;-75
2022/04/10 04:35:16;;;;;;;;;;;;;;;;;;2013275;28;20182;-74
2022/04/10 04:36:16;;;;;;;;;;;;;;;;;;2013737;28;19916;-74
2022/04/10 04:37:15;;;;;;;;;;;;;;;;;;2013891;28;20070;-74
2022/04/10 04:38:14;;;;;;;;;;;;;;;;;;2013890;28;20021;-74
2022/04/10 04:39:13;;;;;;;;;;;;;;;;;;2013793;28;19905;-74
2022/04/10 04:40:12;;;;;;;;;;;;;;;;;;2013376;28;19913;-74
2022/04/10 04:41:11;;;;;;;;;;;;;;;;;;2013192;28;19956;-74
2022/04/10 04:42:10;;;;;;;;;;;;;;;;;;2013692;28;19905;-73
2022/04/10 04:43:09;;;;;;;;;;;;;;;;;;2014058;28;20460;-74
2022/04/10 04:44:08;;;;;;;;;;;;;;;;;;2013668;28;19909;-74
2022/04/10 04:45:08;;;;;;;;;;;;;;;;;;2013845;28;19912;-74
2022/04/10 04:46:07;;;;;;;;;;;;;;;;;;2013793;28;19940;-75
2022/04/10 04:47:06;;;;;;;;;;;;;;;;;;2013576;28;19916;-74
2022/04/10 04:48:04;;;;;;;;;;;;;;;;;;2013658;28;19905;-74
2022/04/10 04:49:03;;;;;;;;;;;;;;;;;;2013852;28;19912;-74
2022/04/10 04:50:02;;;;;;;;;;;;;;;;;;2014542;28;19932;-74
2022/04/10 04:51:02;;;;;;;;;;;;;;;;;;2014851;28;19916;-74
2022/04/10 04:52:01;;;;;;;;;;;;;;;;;;2014725;28;19996;-74
2022/04/10 04:53:01;;;;;;;;;;;;;;;;;;2014805;28;19999;-74
2022/04/10 04:54:00;;;;;;;;;;;;;;;;;;2015498;28;19908;-74
2022/04/10 04:54:58;;;;;;;;;;;;;;;;;;2015253;28;19909;-74
2022/04/10 04:55:57;;;;;;;;;;;;;;;;;;2015022;28;19927;-74
2022/04/10 04:56:56;;;;;;;;;;;;;;;;;;2015045;28;19905;-74
2022/04/10 04:57:55;;;;;;;;;;;;;;;;;;2014840;28;19909;-74
2022/04/10 04:58:54;;;;;;;;;;;;;;;;;;2014287;28;19919;-75
2022/04/10 04:59:53;;;;;;;;;;;;;;;;;;2013874;28;19905;-74
2022/04/10 05:00:52;;;;;;;;;;;;;;;;;;2013684;28;20319;-74
2022/04/10 05:01:51;;;;;;;;;;;;;;;;;;2013574;28;19958;-74
2022/04/10 05:02:49;;;;;;;;;;;;;;;;;;2013589;28;19905;-74
2022/04/10 05:03:51;;;;;;;;;;;;;;;;;;2013567;28;19912;-75
2022/04/10 05:04:52;;;;;;;;;;;;;;;;;;2013589;28;20267;-74
2022/04/10 05:05:51;;;;;;;;;;;;;;;;;;2013514;28;19955;-74
2022/04/10 05:06:50;;;;;;;;;;;;;;;;;;2013516;28;20398;-74
2022/04/10 05:07:49;;;;;;;;;;;;;;;;;;2013527;28;19905;-75
2022/04/10 05:08:47;;;;;;;;;;;;;;;;;;2013443;28;19905;-74
2022/04/10 05:09:46;;;;;;;;;;;;;;;;;;2013052;28;20007;-73
2022/04/10 05:10:45;;;;;;;;;;;;;;;;;;2013149;28;19909;-75
2022/04/10 05:11:44;;;;;;;;;;;;;;;;;;2013635;28;20315;-74
2022/04/10 05:12:43;;;;;;;;;;;;;;;;;;2013683;28;20004;-74
2022/04/10 05:13:42;;;;;;;;;;;;;;;;;;2013651;28;19995;-74
2022/04/10 05:14:41;;;;;;;;;;;;;;;;;;2013589;28;20399;-74
2022/04/10 05:15:39;;;;;;;;;;;;;;;;;;2013480;28;19995;-74
2022/04/10 05:16:38;;;;;;;;;;;;;;;;;;2013539;28;20257;-74
2022/04/10 05:17:37;;;;;;;;;;;;;;;;;;2013689;28;19948;-74
2022/04/10 05:18:36;;;;;;;;;;;15.00;94.20;;;;;;2013586;28;19977;-74
2022/04/10 05:19:34;;;;;;;;;;;15.10;94.30;;;;;;2013657;28;19913;-73
2022/04/10 05:20:33;;;;;;;;;;;15.00;94.20;;;;;;2012864;28;20446;-74
2022/04/10 05:21:31;;;;;;;;;;;15.00;94.00;;;;;;2012954;28;19913;-74
2022/04/10 05:22:29;;;;;;;;;;;15.10;93.90;;;;;;2012230;28;20003;-74
2022/04/10 05:23:28;;;;;;;;;;;15.10;93.80;;;;;;2013024;28;19905;-74
2022/04/10 05:24:27;;;;;;;;;;;15.10;93.70;;;;;;2013318;28;20399;-74
2022/04/10 05:25:25;;;;;;;;;;;15.10;93.60;;;;;;2013424;28;19967;-74
2022/04/10 05:26:25;;;;;;;;;;;15.00;93.40;;;;;;2013291;28;19905;-74
2022/04/10 05:27:25;;;;;;;;;;;15.00;93.30;;;;;;2013506;28;19955;-74
2022/04/10 05:28:24;;;;;;;;;;;15.00;93.30;;;;;;2013428;28;20271;-74
2022/04/10 05:29:22;;;;;;;;;;;15.00;93.20;;;;;;2013258;28;19905;-75
2022/04/10 05:30:21;;;;;;;;;;;15.10;93.30;;;;;;2013325;28;19905;-75
2022/04/10 05:31:19;;;;;;;;;;;15.10;93.20;;;;;;2013392;28;20003;-74
2022/04/10 05:32:18;;;;;;;;;;;15.00;93.10;;;;;;2013255;28;19905;-74
2022/04/10 05:33:16;;;;;;;;;;;15.00;93.00;;;;;;2012657;28;19905;-75
2022/04/10 05:34:15;;;;;;;;;;;15.00;93.00;;;;;;2012703;28;20000;-74
2022/04/10 05:35:13;;;;;;;;;;;15.00;92.90;;;;;;2013235;28;20276;-75
2022/04/10 05:36:12;;;;;;;;;;;15.00;92.90;;;;;;2013240;28;19905;-73
2022/04/10 05:37:10;;;;;;;;;;;15.00;92.80;;;;;;2013324;28;19959;-75
2022/04/10 05:38:09;;;;;;;;;;;15.00;92.80;;;;;;2013322;28;19998;-75
2022/04/10 05:39:07;;;;;;;;;;;15.00;92.90;;;;;;2013253;28;20348;-74
2022/04/10 05:40:06;;;;;;;;;;;15.00;92.90;;;;;;2013329;28;19951;-74
2022/04/10 05:41:04;;;;;;;;;;;15.00;92.80;;;;;;2013336;28;19905;-75
2022/04/10 05:42:02;;;;;;;;;;;15.00;92.80;;;;;;2013217;28;19913;-75
2022/04/10 05:43:01;;;;;;;;;;;15.00;92.70;;;;;;2013035;28;19912;-74
2022/04/10 05:43:59;;;;;;;;;;;15.10;92.70;;;;;;2012569;28;20381;-74
2022/04/10 05:45:01;;;;;;;;;;;15.10;92.70;;;;;;2013200;28;19987;-75
2022/04/10 05:46:01;;;;;;;;;;;15.10;92.80;;;;;;2013357;28;19905;-74
2022/04/10 05:46:59;;;;;;;;;;;15.00;92.70;;;;;;2013209;28;20275;-74
2022/04/10 05:47:57;;;;;;;;;;;15.10;92.80;;;;;;2013203;28;19905;-74
2022/04/10 05:48:56;;;;;;;;;;;15.10;92.70;;;;;;2013226;28;19905;-74
2022/04/10 05:49:55;;;;;;;;;;;15.10;93.00;;;;;;2013202;28;19924;-74
2022/04/10 05:50:53;;;;;;;;;;;15.10;92.60;;;;;;2013148;28;20374;-74
2022/04/10 05:51:52;;;;;;;;;;;15.00;92.60;;;;;;2013010;28;19909;-75
2022/04/10 05:52:51;;;;;;;;;;;15.10;92.60;;;;;;2013213;28;19975;-77
2022/04/10 05:53:49;;;;;;;;;;;15.10;92.60;;;;;;2013019;28;19906;-75
2022/04/10 05:54:47;;;;;;;;;;;15.10;92.50;;;;;;2013211;28;19905;-74
2022/04/10 05:55:46;;;;;;;;;;;15.00;92.50;;;;;;2013141;28;19905;-74
2022/04/10 05:56:44;;;;;;;;;;;15.10;92.50;;;;;;2013132;28;20016;-75
2022/04/10 05:57:43;;;;;;;;;;;15.10;92.50;;;;;;2013184;28;19912;-75
2022/04/10 05:58:42;;;;;;;;;;;15.10;92.40;;;;;;2013150;28;19928;-74
2022/04/10 05:59:40;;;;;;;;;;;15.10;92.40;;;;;;2013102;28;19912;-75
2022/04/10 06:00:39;;;;;;;;;;;15.10;92.40;;;;;;2013147;28;19996;-74
2022/04/10 06:01:38;;;;;;;;;;;15.10;92.30;;;;;;2013079;28;19905;-74
2022/04/10 06:02:37;;;;;;;;;;;15.10;92.30;;;;;;2013104;28;19909;-76
2022/04/10 06:03:36;;;;;;;;;;;15.10;92.30;;;;;;2013019;28;20359;-75
2022/04/10 06:04:34;;;;;;;;;;;15.10;92.30;;;;;;2013195;28;19913;-74
2022/04/10 06:05:33;;;;;;;;;;;15.10;92.30;;;;;;2013059;28;19909;-74
2022/04/10 06:06:31;;;;;;;;;;;15.10;92.30;;;;;;2012889;28;19955;-74
2022/04/10 06:07:29;;;;;;;;;;;15.10;92.20;;;;;;2013098;28;20009;-74
2022/04/10 06:08:28;;;;;;;;;;;15.10;92.20;;;;;;2012988;28;19912;-73
2022/04/10 06:09:26;;;;;;;;;;;15.10;92.30;;;;;;2013008;28;19912;-74
2022/04/10 06:10:25;;;;;;;;;;;15.10;92.30;;;;;;2013100;28;19955;-75
2022/04/10 06:11:23;;;;;;;;;;;15.10;92.30;;;;;;2013021;28;19905;-75
2022/04/10 06:12:22;;;;;;;;;;;15.10;92.20;;;;;;2013166;28;19913;-74
2022/04/10 06:13:21;;;;;;;;;;;15.10;92.20;;;;;;2013091;28;19905;-74
2022/04/10 06:14:19;;;;;;;;;;;15.10;92.30;;;;;;2013019;28;19909;-75
2022/04/10 06:15:21;;;;;;;;;;;15.10;92.30;;;;;;2012995;28;19905;-75
2022/04/10 06:16:19;;;;;;;;;;;15.10;92.40;;;;;;2013072;28;19911;-77
2022/04/10 06:17:18;;;;;;;;;;;15.00;92.20;;;;;;2013231;28;20344;-74
2022/04/10 06:18:16;;;;;;;;;;;15.10;92.30;;;;;;2012887;28;20248;-75
2022/04/10 06:19:16;;;;;;;;;;;15.10;92.30;;;;;;2013041;28;19916;-75
2022/04/10 06:20:14;;;;;;;;;;;15.10;92.40;;;;;;2013152;28;19905;-75
2022/04/10 06:21:13;;;;;;;;;;;15.10;92.40;;;;;;2012949;28;20369;-74
2022/04/10 06:22:11;;;;;;;;;;;15.10;92.40;;;;;;2013031;28;19954;-74